sensor_id;sensor_type;location;lat;lon;timestamp;P1;P2;P0
69746;PMS7003;57018;50.278;19.134;2023-02-04T00:02:14;21.00;18.50;10.50
69746;PMS7003;57018;50.278;19.134;2023-02-04T00:04:44;18.00;15.33;11.00
69746;PMS7003;57018;50.278;19.134;2023-02-04T00:07:14;18.50;17.50;10.50
69746;PMS7003;57018;50.278;19.134;2023-02-04T00:09:44;10.00;9.00;8.00
69746;PMS7003;57018;50.278;19.134;2023-02-04T00:12:15;14.50;12.00;9.00
69746;PMS7003;57018;50.278;19.134;2023-02-04T00:14:45;16.50;14.00;10.00
69746;PMS7003;57018;50.278;19.134;2023-02-04T00:17:15;16.33;16.33;11.67
69746;PMS7003;57018;50.278;19.134;2023-02-04T00:19:45;15.00;15.00;10.00
69746;PMS7003;57018;50.278;19.134;2023-02-04T00:22:14;16.33;14.33;11.00
69746;PMS7003;57018;50.278;19.134;2023-02-04T00:24:44;14.00;11.00;7.67
69746;PMS7003;57018;50.278;19.134;2023-02-04T00:27:16;14.00;14.00;9.67
69746;PMS7003;57018;50.278;19.134;2023-02-04T00:29:46;14.50;14.00;10.00
69746;PMS7003;57018;50.278;19.134;2023-02-04T00:32:15;21.00;14.00;11.00
69746;PMS7003;57018;50.278;19.134;2023-02-04T00:34:45;12.33;11.67;7.00
69746;PMS7003;57018;50.278;19.134;2023-02-04T00:37:15;15.50;15.00;10.50
69746;PMS7003;57018;50.278;19.134;2023-02-04T00:39:45;10.00;9.00;6.00
69746;PMS7003;57018;50.278;19.134;2023-02-04T00:42:15;14.00;11.00;9.00
69746;PMS7003;57018;50.278;19.134;2023-02-04T00:44:45;12.00;11.00;7.00
69746;PMS7003;57018;50.278;19.134;2023-02-04T00:47:15;12.50;12.00;9.50
69746;PMS7003;57018;50.278;19.134;2023-02-04T00:49:45;12.00;10.00;6.00
69746;PMS7003;57018;50.278;19.134;2023-02-04T00:52:14;15.00;11.00;7.00
69746;PMS7003;57018;50.278;19.134;2023-02-04T00:54:44;11.33;11.33;8.33
69746;PMS7003;57018;50.278;19.134;2023-02-04T00:57:14;14.00;12.00;9.00
69746;PMS7003;57018;50.278;19.134;2023-02-04T00:59:44;9.50;9.50;5.75
69746;PMS7003;57018;50.278;19.134;2023-02-04T01:02:14;6.33;6.33;4.33
69746;PMS7003;57018;50.278;19.134;2023-02-04T01:04:43;10.00;9.00;5.00
69746;PMS7003;57018;50.278;19.134;2023-02-04T01:07:13;6.00;6.00;5.00
69746;PMS7003;57018;50.278;19.134;2023-02-04T01:09:43;12.75;12.75;8.50
69746;PMS7003;57018;50.278;19.134;2023-02-04T01:12:13;6.00;6.00;4.00
69746;PMS7003;57018;50.278;19.134;2023-02-04T01:14:42;11.00;10.50;8.00
69746;PMS7003;57018;50.278;19.134;2023-02-04T01:17:12;8.00;8.00;6.50
69746;PMS7003;57018;50.278;19.134;2023-02-04T01:19:42;11.67;8.67;6.33
69746;PMS7003;57018;50.278;19.134;2023-02-04T01:22:12;10.33;9.33;6.00
69746;PMS7003;57018;50.278;19.134;2023-02-04T01:24:42;6.00;5.50;4.00
69746;PMS7003;57018;50.278;19.134;2023-02-04T01:27:12;10.00;9.00;7.00
69746;PMS7003;57018;50.278;19.134;2023-02-04T01:29:42;14.50;13.00;9.00
69746;PMS7003;57018;50.278;19.134;2023-02-04T01:32:12;10.00;9.00;7.00
69746;PMS7003;57018;50.278;19.134;2023-02-04T01:34:42;12.50;11.00;9.00
69746;PMS7003;57018;50.278;19.134;2023-02-04T01:37:11;9.67;9.00;6.00
69746;PMS7003;57018;50.278;19.134;2023-02-04T01:39:41;11.67;11.67;7.67
69746;PMS7003;57018;50.278;19.134;2023-02-04T01:42:11;9.75;9.75;7.75
69746;PMS7003;57018;50.278;19.134;2023-02-04T01:44:41;11.00;7.00;6.00
69746;PMS7003;57018;50.278;19.134;2023-02-04T01:47:11;6.00;6.00;2.67
69746;PMS7003;57018;50.278;19.134;2023-02-04T01:49:41;5.00;5.00;3.00
69746;PMS7003;57018;50.278;19.134;2023-02-04T01:52:19;5.00;2.00;2.00
69746;PMS7003;57018;50.278;19.134;2023-02-04T01:54:50;6.00;4.00;2.00
69746;PMS7003;57018;50.278;19.134;2023-02-04T01:57:20;4.00;4.00;4.00
69746;PMS7003;57018;50.278;19.134;2023-02-04T01:59:51;5.00;4.00;2.00
69746;PMS7003;57018;50.278;19.134;2023-02-04T02:02:39;3.33;3.33;2.00
69746;PMS7003;57018;50.278;19.134;2023-02-04T02:05:12;1.00;1.00;0.00
69746;PMS7003;57018;50.278;19.134;2023-02-04T02:07:44;4.00;4.00;2.00
69746;PMS7003;57018;50.278;19.134;2023-02-04T02:10:15;5.00;5.00;4.00
69746;PMS7003;57018;50.278;19.134;2023-02-04T02:12:47;4.00;2.00;2.00
69746;PMS7003;57018;50.278;19.134;2023-02-04T02:15:18;4.50;3.75;1.75
69746;PMS7003;57018;50.278;19.134;2023-02-04T02:17:48;7.00;6.00;5.00
69746;PMS7003;57018;50.278;19.134;2023-02-04T02:20:19;4.67;2.00;1.67
69746;PMS7003;57018;50.278;19.134;2023-02-04T02:22:54;4.00;4.00;3.00
69746;PMS7003;57018;50.278;19.134;2023-02-04T02:25:31;5.50;4.00;1.50
69746;PMS7003;57018;50.278;19.134;2023-02-04T02:28:01;2.00;2.00;1.00
69746;PMS7003;57018;50.278;19.134;2023-02-04T02:30:34;0.67;0.67;0.33
69746;PMS7003;57018;50.278;19.134;2023-02-04T02:33:04;5.00;5.00;2.00
69746;PMS7003;57018;50.278;19.134;2023-02-04T02:35:34;3.00;3.00;2.00
69746;PMS7003;57018;50.278;19.134;2023-02-04T02:38:04;2.00;1.33;1.00
69746;PMS7003;57018;50.278;19.134;2023-02-04T02:40:34;1.00;1.00;0.00
69746;PMS7003;57018;50.278;19.134;2023-02-04T02:43:04;5.50;4.00;2.00
69746;PMS7003;57018;50.278;19.134;2023-02-04T02:45:38;4.75;4.25;2.50
69746;PMS7003;57018;50.278;19.134;2023-02-04T02:48:08;5.00;4.00;2.00
69746;PMS7003;57018;50.278;19.134;2023-02-04T02:50:39;4.00;4.00;1.00
69746;PMS7003;57018;50.278;19.134;2023-02-04T02:53:11;5.50;5.50;4.00
69746;PMS7003;57018;50.278;19.134;2023-02-04T02:55:42;4.00;4.00;1.00
69746;PMS7003;57018;50.278;19.134;2023-02-04T02:58:14;12.00;8.50;5.00
69746;PMS7003;57018;50.278;19.134;2023-02-04T03:00:50;2.00;2.00;2.00
69746;PMS7003;57018;50.278;19.134;2023-02-04T03:03:21;6.00;6.00;5.00
69746;PMS7003;57018;50.278;19.134;2023-02-04T03:05:56;5.00;5.00;2.00
69746;PMS7003;57018;50.278;19.134;2023-02-04T03:08:29;2.00;2.00;2.00
69746;PMS7003;57018;50.278;19.134;2023-02-04T03:10:59;4.00;4.00;2.00
69746;PMS7003;57018;50.278;19.134;2023-02-04T03:13:29;10.33;6.33;5.00
69746;PMS7003;57018;50.278;19.134;2023-02-04T03:15:59;4.00;2.00;1.00
69746;PMS7003;57018;50.278;19.134;2023-02-04T03:18:30;5.00;5.00;4.00
69746;PMS7003;57018;50.278;19.134;2023-02-04T03:21:00;8.00;8.00;4.00
69746;PMS7003;57018;50.278;19.134;2023-02-04T03:23:32;4.00;4.00;4.00
69746;PMS7003;57018;50.278;19.134;2023-02-04T03:26:04;11.00;6.50;5.00
69746;PMS7003;57018;50.278;19.134;2023-02-04T03:28:37;13.50;13.50;8.00
69746;PMS7003;57018;50.278;19.134;2023-02-04T03:31:09;12.50;12.50;6.50
69746;PMS7003;57018;50.278;19.134;2023-02-04T03:33:38;12.00;11.00;6.00
69746;PMS7003;57018;50.278;19.134;2023-02-04T03:36:09;12.33;8.33;5.00
69746;PMS7003;57018;50.278;19.134;2023-02-04T03:38:39;9.00;9.00;6.00
69746;PMS7003;57018;50.278;19.134;2023-02-04T03:41:09;10.00;7.00;4.00
69746;PMS7003;57018;50.278;19.134;2023-02-04T03:43:39;5.00;5.00;4.00
69746;PMS7003;57018;50.278;19.134;2023-02-04T03:46:09;6.50;6.50;4.00
69746;PMS7003;57018;50.278;19.134;2023-02-04T03:48:39;4.00;4.00;2.00
69746;PMS7003;57018;50.278;19.134;2023-02-04T03:51:11;4.00;4.00;2.00
69746;PMS7003;57018;50.278;19.134;2023-02-04T03:53:41;2.00;2.00;2.00
69746;PMS7003;57018;50.278;19.134;2023-02-04T03:56:11;7.50;5.75;4.75
69746;PMS7003;57018;50.278;19.134;2023-02-04T03:58:41;2.00;2.00;1.33
69746;PMS7003;57018;50.278;19.134;2023-02-04T04:01:10;4.67;2.00;1.00
69746;PMS7003;57018;50.278;19.134;2023-02-04T04:03:40;2.00;2.00;1.00
69746;PMS7003;57018;50.278;19.134;2023-02-04T04:06:10;7.00;7.00;5.00
69746;PMS7003;57018;50.278;19.134;2023-02-04T04:08:40;11.00;11.00;5.00
69746;PMS7003;57018;50.278;19.134;2023-02-04T04:11:10;9.33;9.33;5.00
69746;PMS7003;57018;50.278;19.134;2023-02-04T04:13:40;11.00;11.00;8.00
69746;PMS7003;57018;50.278;19.134;2023-02-04T04:16:09;14.00;9.00;7.00
69746;PMS7003;57018;50.278;19.134;2023-02-04T04:18:39;13.00;12.00;7.50
69746;PMS7003;57018;50.278;19.134;2023-02-04T04:21:09;18.00;17.00;11.00
69746;PMS7003;57018;50.278;19.134;2023-02-04T04:23:39;19.00;15.00;8.00
69746;PMS7003;57018;50.278;19.134;2023-02-04T04:26:08;13.33;13.33;11.00
69746;PMS7003;57018;50.278;19.134;2023-02-04T04:28:38;14.50;11.50;7.50
69746;PMS7003;57018;50.278;19.134;2023-02-04T04:31:08;13.67;12.67;8.00
69746;PMS7003;57018;50.278;19.134;2023-02-04T04:33:38;18.00;18.00;11.00
69746;PMS7003;57018;50.278;19.134;2023-02-04T04:36:08;15.00;12.33;8.00
69746;PMS7003;57018;50.278;19.134;2023-02-04T04:38:38;16.00;14.33;8.00
69746;PMS7003;57018;50.278;19.134;2023-02-04T04:41:08;10.50;8.50;3.00
69746;PMS7003;57018;50.278;19.134;2023-02-04T04:43:38;20.00;17.00;12.00
69746;PMS7003;57018;50.278;19.134;2023-02-04T04:46:07;11.00;4.33;0.00
69746;PMS7003;57018;50.278;19.134;2023-02-04T04:48:38;23.00;19.00;14.00
69746;PMS7003;57018;50.278;19.134;2023-02-04T04:51:07;22.50;18.00;11.00
69746;PMS7003;57018;50.278;19.134;2023-02-04T04:53:37;14.00;13.00;7.00
69746;PMS7003;57018;50.278;19.134;2023-02-04T04:56:08;13.50;12.00;6.00
69746;PMS7003;57018;50.278;19.134;2023-02-04T04:58:37;16.00;14.00;10.00
69746;PMS7003;57018;50.278;19.134;2023-02-04T05:01:07;17.50;14.00;8.00
69746;PMS7003;57018;50.278;19.134;2023-02-04T05:03:37;10.00;10.00;7.00
69746;PMS7003;57018;50.278;19.134;2023-02-04T05:06:07;20.00;20.00;13.00
69746;PMS7003;57018;50.278;19.134;2023-02-04T05:08:38;16.00;16.00;13.00
69746;PMS7003;57018;50.278;19.134;2023-02-04T05:11:08;20.00;17.00;11.00
69746;PMS7003;57018;50.278;19.134;2023-02-04T05:13:38;14.00;11.00;8.00
69746;PMS7003;57018;50.278;19.134;2023-02-04T05:16:08;14.00;13.00;7.00
69746;PMS7003;57018;50.278;19.134;2023-02-04T05:18:39;15.50;15.50;9.00
69746;PMS7003;57018;50.278;19.134;2023-02-04T05:21:09;17.33;13.00;7.33
69746;PMS7003;57018;50.278;19.134;2023-02-04T05:23:39;13.00;12.00;8.00
69746;PMS7003;57018;50.278;19.134;2023-02-04T05:26:08;18.00;12.25;7.00
69746;PMS7003;57018;50.278;19.134;2023-02-04T05:28:38;8.00;8.00;7.00
69746;PMS7003;57018;50.278;19.134;2023-02-04T05:31:08;11.00;9.00;5.00
69746;PMS7003;57018;50.278;19.134;2023-02-04T05:33:38;13.00;13.00;9.00
69746;PMS7003;57018;50.278;19.134;2023-02-04T05:36:07;13.50;13.00;10.00
69746;PMS7003;57018;50.278;19.134;2023-02-04T05:38:37;11.00;10.50;7.50
69746;PMS7003;57018;50.278;19.134;2023-02-04T05:41:07;14.00;14.00;10.00
69746;PMS7003;57018;50.278;19.134;2023-02-04T05:43:37;13.00;11.00;7.50
69746;PMS7003;57018;50.278;19.134;2023-02-04T05:46:07;16.00;16.00;9.00
69746;PMS7003;57018;50.278;19.134;2023-02-04T05:48:37;10.00;6.00;4.00
69746;PMS7003;57018;50.278;19.134;2023-02-04T05:51:07;17.33;10.00;7.00
69746;PMS7003;57018;50.278;19.134;2023-02-04T05:53:37;22.25;13.75;7.50
69746;PMS7003;57018;50.278;19.134;2023-02-04T05:56:07;20.25;17.25;14.25
69746;PMS7003;57018;50.278;19.134;2023-02-04T05:58:36;17.00;14.50;9.00
69746;PMS7003;57018;50.278;19.134;2023-02-04T06:01:06;18.50;14.00;10.50
69746;PMS7003;57018;50.278;19.134;2023-02-04T06:03:36;12.50;12.50;8.50
69746;PMS7003;57018;50.278;19.134;2023-02-04T06:06:06;21.67;17.33;10.67
69746;PMS7003;57018;50.278;19.134;2023-02-04T06:08:36;17.00;9.67;7.00
69746;PMS7003;57018;50.278;19.134;2023-02-04T06:11:06;17.00;16.33;10.00
69746;PMS7003;57018;50.278;19.134;2023-02-04T06:13:36;18.00;16.00;8.50
69746;PMS7003;57018;50.278;19.134;2023-02-04T06:16:06;14.00;13.00;10.00
69746;PMS7003;57018;50.278;19.134;2023-02-04T06:18:37;16.00;13.00;7.00
69746;PMS7003;57018;50.278;19.134;2023-02-04T06:21:08;19.50;17.00;9.00
69746;PMS7003;57018;50.278;19.134;2023-02-04T06:23:38;21.00;15.00;10.00
69746;PMS7003;57018;50.278;19.134;2023-02-04T06:26:08;13.00;13.00;9.00
69746;PMS7003;57018;50.278;19.134;2023-02-04T06:28:38;18.50;14.50;10.00
69746;PMS7003;57018;50.278;19.134;2023-02-04T06:31:07;15.50;15.50;10.00
69746;PMS7003;57018;50.278;19.134;2023-02-04T06:33:37;16.00;13.00;9.00
69746;PMS7003;57018;50.278;19.134;2023-02-04T06:36:07;25.00;18.33;12.00
69746;PMS7003;57018;50.278;19.134;2023-02-04T06:38:37;18.50;18.00;11.00
69746;PMS7003;57018;50.278;19.134;2023-02-04T06:41:07;18.00;18.00;13.00
69746;PMS7003;57018;50.278;19.134;2023-02-04T06:43:37;20.00;18.00;12.00
69746;PMS7003;57018;50.278;19.134;2023-02-04T06:46:06;12.00;12.00;6.50
69746;PMS7003;57018;50.278;19.134;2023-02-04T06:48:36;28.00;21.00;12.00
69746;PMS7003;57018;50.278;19.134;2023-02-04T06:51:06;15.50;10.00;7.00
69746;PMS7003;57018;50.278;19.134;2023-02-04T06:53:36;19.00;16.00;12.00
69746;PMS7003;57018;50.278;19.134;2023-02-04T06:56:10;15.00;15.00;9.00
69746;PMS7003;57018;50.278;19.134;2023-02-04T06:58:39;18.25;18.00;12.00
69746;PMS7003;57018;50.278;19.134;2023-02-04T07:01:09;16.50;13.00;9.00
69746;PMS7003;57018;50.278;19.134;2023-02-04T07:03:39;9.50;8.00;0.00
69746;PMS7003;57018;50.278;19.134;2023-02-04T07:06:09;27.67;24.67;15.67
69746;PMS7003;57018;50.278;19.134;2023-02-04T07:08:39;13.00;13.00;12.00
69746;PMS7003;57018;50.278;19.134;2023-02-04T07:11:09;20.67;18.33;12.33
69746;PMS7003;57018;50.278;19.134;2023-02-04T07:13:38;17.67;16.33;10.67
69746;PMS7003;57018;50.278;19.134;2023-02-04T07:16:08;22.00;22.00;13.00
69746;PMS7003;57018;50.278;19.134;2023-02-04T07:18:38;1.00;1.00;0.00
69746;PMS7003;57018;50.278;19.134;2023-02-04T07:21:08;24.00;21.00;13.00
69746;PMS7003;57018;50.278;19.134;2023-02-04T07:23:38;20.00;16.00;9.00
69746;PMS7003;57018;50.278;19.134;2023-02-04T07:26:08;24.00;22.00;13.00
69746;PMS7003;57018;50.278;19.134;2023-02-04T07:28:37;24.00;19.00;12.00
69746;PMS7003;57018;50.278;19.134;2023-02-04T07:31:09;24.67;24.67;16.00
69746;PMS7003;57018;50.278;19.134;2023-02-04T07:33:39;21.67;20.00;15.67
69746;PMS7003;57018;50.278;19.134;2023-02-04T07:36:08;30.50;25.00;15.50
69746;PMS7003;57018;50.278;19.134;2023-02-04T07:38:38;25.00;19.00;11.50
69746;PMS7003;57018;50.278;19.134;2023-02-04T07:41:08;23.00;20.00;13.50
69746;PMS7003;57018;50.278;19.134;2023-02-04T07:43:38;15.00;15.00;9.00
69746;PMS7003;57018;50.278;19.134;2023-02-04T07:46:08;13.00;13.00;7.00
69746;PMS7003;57018;50.278;19.134;2023-02-04T07:48:38;18.75;18.25;10.50
69746;PMS7003;57018;50.278;19.134;2023-02-04T07:53:37;22.00;22.00;14.00
69746;PMS7003;57018;50.278;19.134;2023-02-04T07:56:07;16.00;16.00;11.00
69746;PMS7003;57018;50.278;19.134;2023-02-04T07:58:37;23.50;22.00;13.00
69746;PMS7003;57018;50.278;19.134;2023-02-04T08:01:06;20.50;19.00;11.50
69746;PMS7003;57018;50.278;19.134;2023-02-04T08:03:36;13.00;13.00;7.00
69746;PMS7003;57018;50.278;19.134;2023-02-04T08:06:08;13.00;13.00;10.00
69746;PMS7003;57018;50.278;19.134;2023-02-04T08:08:38;17.00;13.00;7.00
69746;PMS7003;57018;50.278;19.134;2023-02-04T08:11:08;15.50;10.50;8.50
69746;PMS7003;57018;50.278;19.134;2023-02-04T08:13:38;10.00;9.00;5.00
69746;PMS7003;57018;50.278;19.134;2023-02-04T08:16:07;15.50;13.50;10.00
69746;PMS7003;57018;50.278;19.134;2023-02-04T08:18:37;13.00;10.00;7.00
69746;PMS7003;57018;50.278;19.134;2023-02-04T08:21:07;20.00;17.00;10.00
69746;PMS7003;57018;50.278;19.134;2023-02-04T08:23:37;21.00;16.00;11.00
69746;PMS7003;57018;50.278;19.134;2023-02-04T08:26:08;29.00;24.75;16.00
69746;PMS7003;57018;50.278;19.134;2023-02-04T08:28:38;37.00;23.00;15.00
69746;PMS7003;57018;50.278;19.134;2023-02-04T08:31:08;28.00;21.50;9.50
69746;PMS7003;57018;50.278;19.134;2023-02-04T08:33:38;32.00;27.50;17.00
69746;PMS7003;57018;50.278;19.134;2023-02-04T08:36:08;30.50;29.50;18.00
69746;PMS7003;57018;50.278;19.134;2023-02-04T08:38:38;17.00;13.00;7.00
69746;PMS7003;57018;50.278;19.134;2023-02-04T08:41:08;18.00;16.33;8.67
69746;PMS7003;57018;50.278;19.134;2023-02-04T08:43:39;24.50;22.00;13.00
69746;PMS7003;57018;50.278;19.134;2023-02-04T08:46:09;23.00;19.00;14.00
69746;PMS7003;57018;50.278;19.134;2023-02-04T08:48:39;24.00;23.00;17.00
69746;PMS7003;57018;50.278;19.134;2023-02-04T08:51:08;21.50;19.00;12.00
69746;PMS7003;57018;50.278;19.134;2023-02-04T08:53:38;21.50;17.00;10.00
69746;PMS7003;57018;50.278;19.134;2023-02-04T08:56:08;25.00;21.00;13.00
69746;PMS7003;57018;50.278;19.134;2023-02-04T08:58:42;26.00;25.50;18.00
69746;PMS7003;57018;50.278;19.134;2023-02-04T09:01:13;23.00;20.00;14.00
69746;PMS7003;57018;50.278;19.134;2023-02-04T09:03:43;21.00;18.00;13.00
69746;PMS7003;57018;50.278;19.134;2023-02-04T09:06:13;28.00;23.00;15.25
69746;PMS7003;57018;50.278;19.134;2023-02-04T09:08:43;15.50;15.50;12.50
69746;PMS7003;57018;50.278;19.134;2023-02-04T09:11:13;29.25;21.25;14.00
69746;PMS7003;57018;50.278;19.134;2023-02-04T09:13:42;34.50;27.00;17.00
69746;PMS7003;57018;50.278;19.134;2023-02-04T09:16:12;27.00;23.00;13.00
69746;PMS7003;57018;50.278;19.134;2023-02-04T09:18:43;27.00;25.00;19.00
69746;PMS7003;57018;50.278;19.134;2023-02-04T09:21:13;22.00;22.00;15.00
69746;PMS7003;57018;50.278;19.134;2023-02-04T09:23:43;21.00;21.00;14.00
69746;PMS7003;57018;50.278;19.134;2023-02-04T09:26:14;32.67;27.00;13.00
69746;PMS7003;57018;50.278;19.134;2023-02-04T09:28:44;20.50;19.50;12.50
69746;PMS7003;57018;50.278;19.134;2023-02-04T09:31:14;22.50;22.00;13.00
69746;PMS7003;57018;50.278;19.134;2023-02-04T09:33:44;23.00;21.00;16.00
69746;PMS7003;57018;50.278;19.134;2023-02-04T09:36:14;27.00;25.00;17.50
69746;PMS7003;57018;50.278;19.134;2023-02-04T09:38:44;30.50;26.50;14.50
69746;PMS7003;57018;50.278;19.134;2023-02-04T09:41:14;35.00;32.00;20.00
69746;PMS7003;57018;50.278;19.134;2023-02-04T09:43:44;32.67;27.33;16.33
69746;PMS7003;57018;50.278;19.134;2023-02-04T09:46:17;28.33;27.00;18.33
69746;PMS7003;57018;50.278;19.134;2023-02-04T09:48:48;21.00;19.50;13.50
69746;PMS7003;57018;50.278;19.134;2023-02-04T09:51:20;20.00;20.00;12.00
69746;PMS7003;57018;50.278;19.134;2023-02-04T09:53:53;23.00;23.00;15.00
69746;PMS7003;57018;50.278;19.134;2023-02-04T09:56:29;23.50;21.00;14.00
69746;PMS7003;57018;50.278;19.134;2023-02-04T09:58:59;24.00;20.67;10.67
69746;PMS7003;57018;50.278;19.134;2023-02-04T10:01:30;19.00;16.00;11.00
69746;PMS7003;57018;50.278;19.134;2023-02-04T10:04:00;21.00;18.00;13.00
69746;PMS7003;57018;50.278;19.134;2023-02-04T10:06:30;23.00;19.00;11.00
69746;PMS7003;57018;50.278;19.134;2023-02-04T10:09:00;15.50;14.50;10.50
69746;PMS7003;57018;50.278;19.134;2023-02-04T10:11:31;21.50;17.00;13.00
69746;PMS7003;57018;50.278;19.134;2023-02-04T10:14:05;27.33;20.33;14.00
69746;PMS7003;57018;50.278;19.134;2023-02-04T10:16:37;12.00;12.00;8.00
69746;PMS7003;57018;50.278;19.134;2023-02-04T10:19:10;16.50;16.00;11.00
69746;PMS7003;57018;50.278;19.134;2023-02-04T10:21:43;17.50;17.50;11.00
69746;PMS7003;57018;50.278;19.134;2023-02-04T10:24:14;10.00;10.00;5.00
69746;PMS7003;57018;50.278;19.134;2023-02-04T10:26:45;18.33;17.33;11.00
69746;PMS7003;57018;50.278;19.134;2023-02-04T10:29:17;19.00;14.50;10.50
69746;PMS7003;57018;50.278;19.134;2023-02-04T10:31:49;13.00;11.00;7.00
69746;PMS7003;57018;50.278;19.134;2023-02-04T10:34:20;19.33;13.67;8.67
69746;PMS7003;57018;50.278;19.134;2023-02-04T10:36:59;14.00;13.50;10.00
69746;PMS7003;57018;50.278;19.134;2023-02-04T10:39:41;12.00;12.00;7.50
69746;PMS7003;57018;50.278;19.134;2023-02-04T10:42:19;13.00;10.00;5.67
69746;PMS7003;57018;50.278;19.134;2023-02-04T10:44:50;17.50;10.00;7.50
69746;PMS7003;57018;50.278;19.134;2023-02-04T10:47:21;13.00;12.25;8.00
69746;PMS7003;57018;50.278;19.134;2023-02-04T10:49:52;13.00;11.00;8.00
69746;PMS7003;57018;50.278;19.134;2023-02-04T10:52:25;11.00;8.00;5.00
69746;PMS7003;57018;50.278;19.134;2023-02-04T10:55:03;14.00;10.00;7.00
69746;PMS7003;57018;50.278;19.134;2023-02-04T10:57:36;14.00;11.00;7.00
69746;PMS7003;57018;50.278;19.134;2023-02-04T11:00:14;10.00;10.00;7.00
69746;PMS7003;57018;50.278;19.134;2023-02-04T11:02:46;8.67;7.00;5.00
69746;PMS7003;57018;50.278;19.134;2023-02-04T11:05:20;12.75;9.00;6.75
69746;PMS7003;57018;50.278;19.134;2023-02-04T11:07:52;7.00;7.00;2.00
69746;PMS7003;57018;50.278;19.134;2023-02-04T11:10:22;8.00;8.00;5.00
69746;PMS7003;57018;50.278;19.134;2023-02-04T11:13:02;10.50;10.00;5.00
69746;PMS7003;57018;50.278;19.134;2023-02-04T11:15:37;10.00;7.00;6.00
69746;PMS7003;57018;50.278;19.134;2023-02-04T11:18:10;16.00;13.00;5.00
69746;PMS7003;57018;50.278;19.134;2023-02-04T11:20:53;10.00;8.00;6.00
69746;PMS7003;57018;50.278;19.134;2023-02-04T11:23:33;13.00;7.00;2.00
69746;PMS7003;57018;50.278;19.134;2023-02-04T11:26:05;16.00;13.00;9.00
69746;PMS7003;57018;50.278;19.134;2023-02-04T11:28:43;9.50;9.50;6.00
69746;PMS7003;57018;50.278;19.134;2023-02-04T11:31:38;11.00;10.00;5.00
69746;PMS7003;57018;50.278;19.134;2023-02-04T11:34:23;11.00;11.00;7.00
69746;PMS7003;57018;50.278;19.134;2023-02-04T11:37:00;11.00;9.75;6.50
69746;PMS7003;57018;50.278;19.134;2023-02-04T11:39:36;7.00;6.00;4.75
69746;PMS7003;57018;50.278;19.134;2023-02-04T11:42:13;12.00;8.00;7.00
69746;PMS7003;57018;50.278;19.134;2023-02-04T11:44:52;13.00;11.00;7.00
69746;PMS7003;57018;50.278;19.134;2023-02-04T11:47:25;10.00;8.50;5.00
69746;PMS7003;57018;50.278;19.134;2023-02-04T11:50:02;10.50;8.00;5.00
69746;PMS7003;57018;50.278;19.134;2023-02-04T11:52:39;16.00;13.50;8.00
69746;PMS7003;57018;50.278;19.134;2023-02-04T11:55:10;12.50;9.00;4.50
69746;PMS7003;57018;50.278;19.134;2023-02-04T11:57:41;10.00;8.00;5.00
69746;PMS7003;57018;50.278;19.134;2023-02-04T12:00:16;13.00;10.00;7.00
69746;PMS7003;57018;50.278;19.134;2023-02-04T12:02:48;11.00;11.00;9.00
69746;PMS7003;57018;50.278;19.134;2023-02-04T12:05:28;12.33;11.67;5.67
69746;PMS7003;57018;50.278;19.134;2023-02-04T12:08:10;11.00;8.00;5.00
69746;PMS7003;57018;50.278;19.134;2023-02-04T12:10:58;10.50;9.00;7.50
69746;PMS7003;57018;50.278;19.134;2023-02-04T12:13:33;7.00;5.00;4.75
69746;PMS7003;57018;50.278;19.134;2023-02-04T12:16:15;8.00;7.00;3.00
69746;PMS7003;57018;50.278;19.134;2023-02-04T12:18:45;13.00;10.00;5.00
69746;PMS7003;57018;50.278;19.134;2023-02-04T12:21:15;7.50;6.00;4.00
69746;PMS7003;57018;50.278;19.134;2023-02-04T12:23:45;9.00;9.00;7.00
69746;PMS7003;57018;50.278;19.134;2023-02-04T12:26:15;9.00;8.00;5.00
69746;PMS7003;57018;50.278;19.134;2023-02-04T12:28:45;11.00;10.00;4.50
69746;PMS7003;57018;50.278;19.134;2023-02-04T12:31:15;5.00;5.00;2.00
69746;PMS7003;57018;50.278;19.134;2023-02-04T12:33:44;11.00;9.00;4.00
69746;PMS7003;57018;50.278;19.134;2023-02-04T12:36:14;5.00;4.00;2.00
69746;PMS7003;57018;50.278;19.134;2023-02-04T12:38:44;6.33;5.00;2.00
69746;PMS7003;57018;50.278;19.134;2023-02-04T12:41:14;7.00;7.00;4.00
69746;PMS7003;57018;50.278;19.134;2023-02-04T12:43:45;5.67;5.67;4.33
69746;PMS7003;57018;50.278;19.134;2023-02-04T12:46:16;13.50;6.00;5.00
69746;PMS7003;57018;50.278;19.134;2023-02-04T12:48:46;10.00;7.50;4.00
69746;PMS7003;57018;50.278;19.134;2023-02-04T12:51:16;4.00;4.00;2.00
69746;PMS7003;57018;50.278;19.134;2023-02-04T12:53:46;4.00;2.00;2.00
69746;PMS7003;57018;50.278;19.134;2023-02-04T12:56:16;4.00;4.00;2.00
69746;PMS7003;57018;50.278;19.134;2023-02-04T12:58:49;12.00;10.50;5.00
69746;PMS7003;57018;50.278;19.134;2023-02-04T13:01:19;7.00;7.00;5.00
69746;PMS7003;57018;50.278;19.134;2023-02-04T13:03:48;10.00;7.00;5.00
69746;PMS7003;57018;50.278;19.134;2023-02-04T13:06:18;5.00;5.00;4.33
69746;PMS7003;57018;50.278;19.134;2023-02-04T13:08:48;10.00;8.25;5.75
69746;PMS7003;57018;50.278;19.134;2023-02-04T13:11:18;5.33;5.33;4.00
69746;PMS7003;57018;50.278;19.134;2023-02-04T13:13:48;8.25;7.75;5.25
69746;PMS7003;57018;50.278;19.134;2023-02-04T13:16:17;9.50;9.50;6.00
69746;PMS7003;57018;50.278;19.134;2023-02-04T13:18:55;10.00;9.00;4.50
69746;PMS7003;57018;50.278;19.134;2023-02-04T13:21:29;10.00;10.00;5.00
69746;PMS7003;57018;50.278;19.134;2023-02-04T13:23:59;7.00;7.00;4.25
69746;PMS7003;57018;50.278;19.134;2023-02-04T13:26:29;2.00;2.00;1.00
69746;PMS7003;57018;50.278;19.134;2023-02-04T13:28:58;2.00;2.00;1.00
69746;PMS7003;57018;50.278;19.134;2023-02-04T13:31:28;6.50;6.00;4.00
69746;PMS7003;57018;50.278;19.134;2023-02-04T13:33:58;8.00;5.67;4.00
69746;PMS7003;57018;50.278;19.134;2023-02-04T13:36:28;10.00;5.00;4.00
69746;PMS7003;57018;50.278;19.134;2023-02-04T13:38:58;13.00;10.00;7.00
69746;PMS7003;57018;50.278;19.134;2023-02-04T13:41:27;12.00;11.00;7.00
69746;PMS7003;57018;50.278;19.134;2023-02-04T13:43:57;5.67;5.67;4.00
69746;PMS7003;57018;50.278;19.134;2023-02-04T13:46:27;7.00;5.00;2.00
69746;PMS7003;57018;50.278;19.134;2023-02-04T13:48:57;9.50;7.50;4.00
69746;PMS7003;57018;50.278;19.134;2023-02-04T13:51:27;8.00;8.00;7.00
69746;PMS7003;57018;50.278;19.134;2023-02-04T13:53:57;11.00;5.00;5.00
69746;PMS7003;57018;50.278;19.134;2023-02-04T13:56:27;13.00;13.00;7.00
69746;PMS7003;57018;50.278;19.134;2023-02-04T13:58:58;11.00;11.00;6.00
69746;PMS7003;57018;50.278;19.134;2023-02-04T14:01:28;11.00;10.00;5.00
69746;PMS7003;57018;50.278;19.134;2023-02-04T14:03:58;13.00;11.00;5.00
69746;PMS7003;57018;50.278;19.134;2023-02-04T14:06:28;12.00;10.50;8.00
69746;PMS7003;57018;50.278;19.134;2023-02-04T14:09:00;13.00;12.00;8.50
69746;PMS7003;57018;50.278;19.134;2023-02-04T14:11:31;7.00;7.00;5.50
69746;PMS7003;57018;50.278;19.134;2023-02-04T14:14:01;13.00;13.00;7.00